Time;durP1;ratioP1;P1;durP2;ratioP2;P2;SDS_P1;SDS_P2;PMS_P1;PMS_P2;Temp;Humidity;BMP_temperature;BMP_pressure;BME280_temperature;BME280_humidity;BME280_pressure;Samples;Min_cycle;Max_cycle;Signal;HPM_P1;HPM_P2
2023/05/19 00:01:42;;;;;;;23.77;8.10;;;6.90;74.80;;;;;;6311843;22;20387;-85
2023/05/19 00:04:11;;;;;;;20.47;7.40;;;6.90;74.90;;;;;;6310502;22;20018;-87
2023/05/19 00:06:37;;;;;;;16.30;7.00;;;6.90;74.90;;;;;;6310407;22;20007;-88
2023/05/19 00:09:08;;;;;;;17.73;7.50;;;6.90;74.90;;;;;;6311222;22;20433;-87
2023/05/19 00:11:35;;;;;;;22.30;8.23;;;6.80;75.00;;;;;;6285919;22;20014;-85
2023/05/19 00:14:03;;;;;;;23.07;7.70;;;6.90;75.00;;;;;;6310842;22;20019;-87
2023/05/19 00:16:29;;;;;;;24.63;8.50;;;6.90;75.10;;;;;;6285676;22;20022;-86
2023/05/19 00:19:00;;;;;;;22.90;7.70;;;6.80;75.10;;;;;;6310371;22;20347;-85
2023/05/19 00:21:26;;;;;;;19.07;7.93;;;6.90;75.20;;;;;;6285674;22;20025;-85
2023/05/19 00:23:52;;;;;;;20.03;7.40;;;6.90;75.20;;;;;;6310630;22;20370;-85
2023/05/19 00:26:18;;;;;;;20.27;7.40;;;6.90;75.10;;;;;;6311400;22;20022;-87
2023/05/19 00:28:44;;;;;;;18.13;7.80;;;6.80;75.10;;;;;;6283847;22;20019;-85
2023/05/19 00:31:09;;;;;;;23.77;7.90;;;6.80;75.10;;;;;;6311401;22;20019;-86
2023/05/19 00:33:35;;;;;;;17.33;7.53;;;6.80;75.10;;;;;;6337889;22;20026;-86
2023/05/19 00:36:02;;;;;;;15.63;7.23;;;6.70;75.20;;;;;;6311559;22;20046;-85
2023/05/19 00:38:33;;;;;;;23.03;8.47;;;6.70;75.20;;;;;;6309897;22;20019;-85
2023/05/19 00:41:00;;;;;;;16.85;7.75;;;6.70;75.20;;;;;;6285394;22;20015;-85
2023/05/19 00:43:26;;;;;;;16.90;7.53;;;6.70;75.20;;;;;;6310097;22;20102;-86
2023/05/19 00:45:52;;;;;;;19.37;7.57;;;6.70;75.30;;;;;;6312277;22;20079;-85
2023/05/19 00:48:18;;;;;;;18.77;7.70;;;6.60;75.30;;;;;;6283192;22;20437;-85
2023/05/19 00:50:44;;;;;;;22.23;7.93;;;6.60;75.40;;;;;;6312107;22;20434;-86
2023/05/19 00:53:12;;;;;;;19.77;8.10;;;6.60;75.40;;;;;;6284802;22;20010;-85
2023/05/19 00:55:39;;;;;;;17.97;7.70;;;6.60;75.50;;;;;;6310898;22;20570;-85
2023/05/19 00:58:07;;;;;;;22.97;7.97;;;6.60;75.60;;;;;;6258058;22;20021;-86
2023/05/19 01:00:35;;;;;;;26.50;8.20;;;6.60;75.70;;;;;;6311659;22;20054;-85
2023/05/19 01:03:09;;;;;;;23.03;8.07;;;6.60;75.80;;;;;;6259913;22;20338;-86
2023/05/19 01:05:40;;;;;;;24.93;7.83;;;6.70;75.80;;;;;;6312093;22;20441;-84
2023/05/19 01:08:07;;;;;;;25.05;8.68;;;6.70;75.80;;;;;;6308526;22;20094;-85
2023/05/19 01:10:33;;;;;;;17.97;7.80;;;6.70;75.90;;;;;;6286383;22;20010;-86
2023/05/19 01:13:00;;;;;;;23.03;7.13;;;6.70;75.80;;;;;;6284504;22;20015;-85
2023/05/19 01:15:27;;;;;;;20.40;7.37;;;6.60;75.90;;;;;;6285643;22;20430;-85
2023/05/19 01:18:10;;;;;;;20.77;7.50;;;6.60;75.90;;;;;;6308419;22;20011;-86
2023/05/19 01:20:58;;;;;;;16.50;6.57;;;6.60;76.00;;;;;;6311450;22;20019;-85
2023/05/19 01:23:43;;;;;;;15.63;6.40;;;6.60;76.00;;;;;;6310603;22;20019;-86
2023/05/19 01:26:48;;;;;;;14.97;6.67;;;6.60;76.00;;;;;;6310300;22;20060;-87
2023/05/19 01:29:23;;;;;;;16.87;6.83;;;6.60;76.10;;;;;;6310170;22;20015;-86
2023/05/19 01:31:49;;;;;;;18.13;7.10;;;6.60;76.10;;;;;;6311471;22;20329;-86
2023/05/19 01:34:18;;;;;;;21.23;7.03;;;6.60;76.10;;;;;;6310177;22;20034;-85
2023/05/19 01:36:47;;;;;;;17.87;7.03;;;6.60;76.20;;;;;;6310820;22;20075;-87
2023/05/19 01:39:13;;;;;;;17.93;7.37;;;6.60;76.20;;;;;;6312466;22;20014;-85
2023/05/19 01:41:41;;;;;;;21.27;6.23;;;6.60;76.20;;;;;;6261909;22;20404;-86
2023/05/19 01:44:08;;;;;;;21.73;6.77;;;6.60;76.30;;;;;;6312119;22;20437;-86
2023/05/19 01:46:35;;;;;;;21.33;7.70;;;6.60;76.30;;;;;;6311921;22;20496;-88
2023/05/19 01:49:01;;;;;;;22.87;6.83;;;6.50;76.30;;;;;;6286633;22;20068;-86
2023/05/19 01:51:27;;;;;;;16.97;7.03;;;6.60;76.50;;;;;;6312576;22;20010;-86
2023/05/19 01:53:52;;;;;;;23.10;6.63;;;6.50;76.50;;;;;;6260712;22;20023;-86
2023/05/19 01:56:24;;;;;;;20.00;6.70;;;6.50;76.50;;;;;;6311823;22;20095;-88
2023/05/19 01:58:54;;;;;;;;;;;6.50;76.50;;;;;;6311785;22;20433;-85
2023/05/19 02:01:35;;;;;;;21.27;6.67;;;6.50;76.90;;;;;;6312917;22;19954;-86
2023/05/19 02:04:04;;;;;;;21.35;6.32;;;6.50;76.60;;;;;;6311914;22;20015;-86
2023/05/19 02:06:48;;;;;;;16.57;6.70;;;6.50;76.70;;;;;;6311798;22;20011;-87
2023/05/19 02:09:45;;;;;;;17.10;6.57;;;6.50;76.70;;;;;;6286491;22;20514;-85
2023/05/19 02:12:23;;;;;;;21.67;8.07;;;6.50;76.70;;;;;;6311479;22;20014;-85
2023/05/19 02:14:57;;;;;;;19.73;6.70;;;6.50;76.70;;;;;;6287365;22;20046;-86
2023/05/19 02:17:27;;;;;;;22.53;7.20;;;6.50;76.80;;;;;;6309750;22;20019;-85
2023/05/19 02:19:53;;;;;;;20.20;7.47;;;6.50;76.80;;;;;;6313308;22;20410;-85
2023/05/19 02:22:19;;;;;;;22.47;7.53;;;6.50;76.90;;;;;;6285656;22;20156;-86
2023/05/19 02:24:46;;;;;;;21.90;7.00;;;6.60;76.90;;;;;;6313521;22;20018;-86
2023/05/19 02:27:12;;;;;;;19.83;6.97;;;6.60;77.00;;;;;;6309396;22;20077;-85
2023/05/19 02:29:38;;;;;;;24.97;7.47;;;6.60;76.90;;;;;;6312889;22;20055;-86
2023/05/19 02:32:04;;;;;;;22.60;7.10;;;6.60;77.00;;;;;;6285588;22;20076;-85
2023/05/19 02:34:30;;;;;;;22.43;6.90;;;6.60;77.00;;;;;;6313568;22;20017;-86
2023/05/19 02:36:56;;;;;;;21.00;6.57;;;6.60;77.00;;;;;;6285060;22;20050;-85
2023/05/19 02:39:22;;;;;;;18.70;6.87;;;6.60;76.90;;;;;;6312272;22;20010;-85
2023/05/19 02:41:47;;;;;;;21.83;6.47;;;6.60;77.00;;;;;;6312430;22;20090;-85
2023/05/19 02:44:13;;;;;;;22.17;6.80;;;6.60;77.00;;;;;;6285670;22;20068;-85
2023/05/19 02:46:39;;;;;;;27.30;7.20;;;6.50;77.00;;;;;;6311623;22;20083;-86
2023/05/19 02:49:05;;;;;;;21.10;6.43;;;6.50;77.00;;;;;;6311646;22;20094;-85
2023/05/19 02:51:31;;;;;;;24.20;7.10;;;6.50;77.20;;;;;;6312638;22;20102;-86
2023/05/19 02:53:56;;;;;;;23.73;6.30;;;6.50;77.10;;;;;;6311546;22;20046;-85
2023/05/19 02:56:22;;;;;;;21.97;6.23;;;6.50;77.10;;;;;;6311996;22;20014;-89
2023/05/19 02:58:48;;;;;;;18.53;6.73;;;6.50;77.00;;;;;;6285016;22;20537;-86
2023/05/19 03:01:14;;;;;;;22.50;6.47;;;6.40;77.10;;;;;;6312631;22;20115;-86
2023/05/19 03:03:40;;;;;;;18.93;6.13;;;6.40;77.10;;;;;;6311267;22;20060;-86
2023/05/19 03:06:08;;;;;;;21.57;6.53;;;6.40;77.10;;;;;;6312863;22;20015;-88
2023/05/19 03:08:37;;;;;;;14.37;5.80;;;6.40;77.10;;;;;;6310228;22;20094;-86
2023/05/19 03:11:02;;;;;;;22.50;6.23;;;6.40;77.00;;;;;;6312288;22;20019;-86
2023/05/19 03:13:28;;;;;;;16.53;5.87;;;6.30;77.00;;;;;;6285476;22;20026;-85
2023/05/19 03:15:57;;;;;;;17.37;6.13;;;6.30;77.00;;;;;;6338571;22;20015;-86
2023/05/19 03:18:24;;;;;;;24.07;6.17;;;6.30;77.00;;;;;;6285216;22;20446;-86
2023/05/19 03:20:52;;;;;;;19.43;5.50;;;6.30;77.00;;;;;;6313005;22;20015;-86
2023/05/19 03:23:19;;;;;;;17.73;5.90;;;6.20;76.90;;;;;;6311215;22;20027;-85
2023/05/19 03:25:45;;;;;;;20.33;5.73;;;6.20;76.90;;;;;;6287211;22;20333;-86
2023/05/19 03:28:10;;;;;;;22.97;6.10;;;6.20;77.00;;;;;;6309960;22;20019;-86
2023/05/19 03:30:36;;;;;;;17.17;6.53;;;6.20;76.90;;;;;;6286706;22;20368;-85
2023/05/19 03:33:02;;;;;;;17.90;6.03;;;6.10;77.00;;;;;;6311637;22;20097;-85
2023/05/19 03:35:28;;;;;;;20.97;6.40;;;6.20;77.00;;;;;;6311552;22;20019;-85
2023/05/19 03:37:54;;;;;;;18.83;6.53;;;6.10;77.00;;;;;;6284929;22;20425;-85
2023/05/19 03:40:19;;;;;;;20.10;6.87;;;6.10;77.00;;;;;;6311860;22;20021;-84
2023/05/19 03:42:45;;;;;;;16.90;5.90;;;6.10;77.00;;;;;;6311135;22;20014;-86
2023/05/19 03:45:11;;;;;;;18.63;6.07;;;6.10;77.00;;;;;;6311998;22;20011;-86
2023/05/19 03:47:37;;;;;;;21.17;6.93;;;6.10;77.00;;;;;;6309764;22;20406;-86
2023/05/19 03:50:02;;;;;;;19.13;6.60;;;6.10;77.00;;;;;;6312180;22;20014;-86
2023/05/19 03:52:28;;;;;;;20.67;6.73;;;6.10;77.10;;;;;;6310843;22;20376;-86
2023/05/19 03:54:54;;;;;;;17.57;6.00;;;6.10;77.10;;;;;;6312268;22;20322;-85
2023/05/19 03:57:20;;;;;;;15.50;6.77;;;6.10;77.20;;;;;;6309663;22;20023;-87
2023/05/19 03:59:46;;;;;;;22.60;7.33;;;6.10;77.20;;;;;;6311110;22;20393;-85
2023/05/19 04:02:11;;;;;;;17.57;7.93;;;6.10;77.30;;;;;;6311017;22;20094;-86
2023/05/19 04:04:37;;;;;;;21.33;7.90;;;6.10;77.30;;;;;;6311758;22;20015;-85
2023/05/19 04:07:03;;;;;;;21.43;8.40;;;6.10;77.30;;;;;;6258127;22;20359;-86
2023/05/19 04:09:31;;;;;;;19.00;8.07;;;6.10;77.30;;;;;;6312126;22;20019;-86
2023/05/19 04:11:57;;;;;;;15.67;7.33;;;6.10;77.30;;;;;;6260917;22;20086;-86
2023/05/19 04:14:23;;;;;;;15.93;7.13;;;6.20;77.40;;;;;;6310654;22;20026;-86
2023/05/19 04:16:49;;;;;;;25.10;8.37;;;6.20;77.40;;;;;;6309960;22;20018;-90
2023/05/19 04:19:14;;;;;;;20.77;8.07;;;6.20;77.40;;;;;;6285161;22;20325;-87
2023/05/19 04:21:40;;;;;;;19.33;7.57;;;6.30;77.50;;;;;;6311552;22;20065;-85
2023/05/19 04:24:06;;;;;;;15.77;7.20;;;6.20;77.50;;;;;;6310965;22;20363;-86
2023/05/19 04:26:33;;;;;;;22.47;8.13;;;6.30;77.60;;;;;;6284494;22;20022;-88
2023/05/19 04:29:03;;;;;;;20.93;8.50;;;6.30;77.70;;;;;;6284516;22;20015;-87
2023/05/19 04:31:28;;;;;;;18.37;7.67;;;6.50;77.80;;;;;;6286727;22;20019;-86
2023/05/19 04:33:54;;;;;;;21.13;8.80;;;6.50;78.10;;;;;;6310678;22;20068;-86
2023/05/19 04:36:20;;;;;;;22.77;8.90;;;6.60;78.20;;;;;;6311535;22;20017;-89
2023/05/19 04:38:46;;;;;;;21.87;8.77;;;6.70;78.20;;;;;;6285160;22;20014;-86
2023/05/19 04:41:12;;;;;;;22.70;7.83;;;6.80;78.20;;;;;;6284679;22;20058;-86
2023/05/19 04:43:40;;;;;;;24.00;8.10;;;6.80;78.20;;;;;;6284333;22;20019;-86
2023/05/19 04:46:10;;;;;;;17.33;8.17;;;6.90;78.20;;;;;;6285156;22;20427;-88
2023/05/19 04:48:36;;;;;;;22.70;8.93;;;7.00;78.20;;;;;;6257178;22;20022;-86
2023/05/19 04:51:03;;;;;;;25.63;9.00;;;7.00;78.80;;;;;;6285624;22;20072;-86
2023/05/19 04:53:30;;;;;;;26.70;8.77;;;7.20;79.10;;;;;;6309606;22;20025;-87
2023/05/19 04:55:57;;;;;;;19.27;8.00;;;7.20;79.10;;;;;;6285392;22;20086;-87
2023/05/19 04:58:24;;;;;;;24.30;8.60;;;7.30;78.90;;;;;;6308937;22;20034;-86
2023/05/19 05:00:51;;;;;;;20.67;8.30;;;7.40;78.90;;;;;;6311958;22;20316;-86
2023/05/19 05:03:17;;;;;;;17.13;8.03;;;7.50;78.90;;;;;;6310339;22;20082;-86
2023/05/19 05:05:43;;;;;;;19.77;8.60;;;7.60;79.00;;;;;;6310939;22;20080;-86
2023/05/19 05:08:10;;;;;;;23.60;9.03;;;7.70;79.20;;;;;;6308722;22;20023;-88
2023/05/19 05:10:36;;;;;;;20.43;8.63;;;7.90;79.30;;;;;;6310829;22;20025;-87
2023/05/19 05:13:02;;;;;;;24.93;10.07;;;8.10;80.00;;;;;;6309714;22;20015;-86
2023/05/19 05:15:28;;;;;;;26.23;9.37;;;8.40;80.50;;;;;;6310915;22;20075;-87
2023/05/19 05:17:55;;;;;;;30.07;10.47;;;8.60;80.30;;;;;;6257807;22;20103;-86
2023/05/19 05:20:21;;;;;;;28.00;8.80;;;8.90;79.70;;;;;;6311141;22;20015;-86
2023/05/19 05:22:50;;;;;;;23.70;9.47;;;9.10;80.00;;;;;;6337643;22;20010;-86
2023/05/19 05:25:17;;;;;;;28.73;9.57;;;9.40;80.10;;;;;;6285256;22;20046;-87
2023/05/19 05:27:42;;;;;;;15.27;7.67;;;9.70;80.40;;;;;;6308718;22;20050;-86
2023/05/19 05:30:08;;;;;;;22.20;9.20;;;10.00;79.90;;;;;;6310577;22;20015;-87
2023/05/19 05:32:34;;;;;;;17.50;8.50;;;10.20;79.50;;;;;;6284291;22;20022;-86
2023/05/19 05:35:00;;;;;;;18.63;8.17;;;10.40;79.20;;;;;;6260048;22;20015;-87
2023/05/19 05:37:26;;;;;;;18.77;7.57;;;10.60;78.70;;;;;;6283940;22;20026;-87
2023/05/19 05:39:51;;;;;;;17.53;7.30;;;10.70;78.20;;;;;;6259649;22;20021;-86
2023/05/19 05:42:17;;;;;;;19.20;7.90;;;10.90;78.10;;;;;;6283679;22;20025;-86
2023/05/19 05:44:43;;;;;;;17.57;7.67;;;11.00;77.90;;;;;;6285255;22;20019;-86
2023/05/19 05:47:10;;;;;;;15.93;7.60;;;11.10;77.80;;;;;;6309093;22;20324;-87
2023/05/19 05:49:36;;;;;;;19.20;7.50;;;11.10;77.30;;;;;;6285990;22;20401;-87
2023/05/19 05:52:04;;;;;;;20.00;7.23;;;11.10;77.10;;;;;;6283766;22;20050;-85
2023/05/19 05:54:30;;;;;;;18.63;7.10;;;11.20;76.80;;;;;;6310350;22;20021;-87
2023/05/19 05:56:56;;;;;;;16.92;6.93;;;11.30;76.60;;;;;;6283971;22;20300;-87
2023/05/19 05:59:22;;;;;;;16.43;6.53;;;11.10;76.00;;;;;;6258212;22;20023;-86
2023/05/19 06:01:47;;;;;;;16.27;7.13;;;11.20;76.10;;;;;;6260049;22;20015;-88
2023/05/19 06:04:13;;;;;;;19.50;6.70;;;11.30;76.10;;;;;;6258775;22;20106;-86
2023/05/19 06:06:39;;;;;;;14.50;6.85;;;11.40;75.60;;;;;;6284431;22;20014;-90
2023/05/19 06:09:04;;;;;;;17.08;6.95;;;11.40;75.40;;;;;;6310307;22;20035;-87
2023/05/19 06:11:31;;;;;;;13.93;6.83;;;11.40;75.20;;;;;;6311873;22;20015;-86
2023/05/19 06:13:56;;;;;;;16.95;7.10;;;11.40;75.30;;;;;;6284109;22;20015;-86
2023/05/19 06:16:22;;;;;;;18.73;7.53;;;11.50;75.20;;;;;;6259404;22;20144;-89
2023/05/19 06:18:48;;;;;;;15.75;7.57;;;11.50;74.90;;;;;;6283610;22;20022;-87
2023/05/19 06:21:14;;;;;;;17.45;7.25;;;11.50;74.90;;;;;;6310845;22;20098;-87
2023/05/19 06:23:40;;;;;;;20.52;7.28;;;11.60;74.70;;;;;;6284180;22;20015;-87
2023/05/19 06:26:06;;;;;;;18.02;7.80;;;11.70;74.80;;;;;;6313202;22;20042;-88
2023/05/19 06:28:32;;;;;;;16.73;8.27;;;11.80;74.70;;;;;;6284840;22;20042;-88
2023/05/19 06:30:58;;;;;;;17.33;7.53;;;11.90;74.20;;;;;;6312560;22;20015;-87
2023/05/19 06:33:24;;;;;;;17.70;7.45;;;11.90;73.90;;;;;;6285688;22;20034;-86
2023/05/19 06:35:50;;;;;;;13.52;6.57;;;12.00;73.80;;;;;;6312566;22;20460;-86
2023/05/19 06:38:16;;;;;;;15.40;7.13;;;12.10;73.50;;;;;;6284681;22;20011;-86
2023/05/19 06:40:42;;;;;;;15.95;7.20;;;12.20;73.50;;;;;;6313347;22;20086;-87
2023/05/19 06:43:08;;;;;;;20.13;7.00;;;12.20;73.40;;;;;;6311705;22;20116;-87
2023/05/19 06:45:34;;;;;;;15.25;7.10;;;12.30;73.20;;;;;;6312779;22;20011;-87
2023/05/19 06:48:00;;;;;;;16.77;7.07;;;12.30;72.70;;;;;;6309689;22;20342;-87
2023/05/19 06:50:26;;;;;;;14.65;6.93;;;12.30;72.90;;;;;;6312710;22;20014;-87
2023/05/19 06:52:52;;;;;;;13.23;6.60;;;12.30;72.40;;;;;;6311445;22;20050;-86
2023/05/19 06:55:17;;;;;;;18.27;6.35;;;12.40;72.40;;;;;;6313219;22;20434;-87
2023/05/19 06:57:43;;;;;;;15.20;6.35;;;12.40;71.90;;;;;;6259228;22;20021;-86
2023/05/19 07:00:12;;;;;;;15.23;6.03;;;12.30;72.00;;;;;;6311877;22;20476;-87
2023/05/19 07:02:38;;;;;;;15.38;6.10;;;12.30;71.90;;;;;;6285217;22;20295;-86
2023/05/19 07:05:04;;;;;;;15.48;6.20;;;12.40;71.50;;;;;;6312568;22;20018;-86
2023/05/19 07:07:30;;;;;;;14.50;6.30;;;12.50;71.40;;;;;;6309620;22;20085;-86
2023/05/19 07:09:56;;;;;;;13.05;6.00;;;12.50;71.70;;;;;;6286442;22;20057;-87
2023/05/19 07:12:22;;;;;;;17.08;5.85;;;12.50;71.40;;;;;;6285561;22;20021;-86
2023/05/19 07:14:47;;;;;;;13.05;5.85;;;12.70;71.20;;;;;;6312850;22;20310;-87
2023/05/19 07:17:13;;;;;;;14.90;5.28;;;12.70;70.50;;;;;;6258229;22;20360;-88
2023/05/19 07:19:39;;;;;;;12.82;5.10;;;12.70;70.30;;;;;;6312621;22;20018;-89
2023/05/19 07:22:05;;;;;;;9.90;4.63;;;12.80;70.00;;;;;;6284877;22;20072;-88
2023/05/19 07:24:31;;;;;;;13.55;4.50;;;12.80;69.50;;;;;;6312251;22;20075;-89
2023/05/19 07:26:57;;;;;;;14.10;4.88;;;12.90;69.80;;;;;;6285488;22;20071;-88
2023/05/19 07:29:47;;;;;;;13.68;4.82;;;12.90;69.10;;;;;;6311671;22;20453;-92
2023/05/19 07:32:13;;;;;;;13.02;4.10;;;13.00;68.90;;;;;;6284106;22;20014;-86
2023/05/19 07:34:40;;;;;;;12.80;4.20;;;13.00;68.60;;;;;;6312816;22;20097;-88
2023/05/19 07:37:06;;;;;;;11.48;4.70;;;13.00;68.20;;;;;;6310681;22;20458;-88
2023/05/19 07:39:33;;;;;;;11.45;4.50;;;13.00;68.40;;;;;;6312647;22;20011;-87
2023/05/19 07:41:59;;;;;;;11.75;4.30;;;13.00;68.20;;;;;;6312009;22;20333;-88
2023/05/19 07:44:26;;;;;;;10.70;4.43;;;13.10;68.30;;;;;;6310649;22;20027;-89
2023/05/19 07:46:52;;;;;;;10.90;4.28;;;13.10;68.50;;;;;;6286028;22;20006;-88
2023/05/19 07:49:18;;;;;;;10.68;3.88;;;13.30;68.40;;;;;;6284612;22;20023;-86
2023/05/19 07:51:44;;;;;;;8.20;3.28;;;13.30;68.10;;;;;;6236023;22;20014;-88
2023/05/19 07:54:10;;;;;;;11.10;3.20;;;13.30;67.50;;;;;;6259955;22;20164;-89
2023/05/19 07:56:35;;;;;;;9.63;2.60;;;13.30;66.60;;;;;;6310937;22;20017;-88
2023/05/19 07:59:02;;;;;;;9.52;3.10;;;13.30;66.20;;;;;;6284026;22;20037;-87
2023/05/19 08:01:29;;;;;;;10.90;3.33;;;13.30;66.30;;;;;;6260558;22;20079;-86
2023/05/19 08:03:55;;;;;;;11.52;3.80;;;13.30;65.80;;;;;;6258981;22;20101;-87
2023/05/19 08:06:21;;;;;;;9.63;3.38;;;13.30;65.40;;;;;;6311894;22;20037;-89
2023/05/19 08:08:47;;;;;;;12.32;3.75;;;13.30;65.20;;;;;;6310514;22;20060;-87
2023/05/19 08:11:12;;;;;;;13.63;3.70;;;13.30;65.80;;;;;;6285852;22;20019;-87
2023/05/19 08:13:38;;;;;;;12.02;3.95;;;13.30;65.40;;;;;;6285306;22;20022;-86
2023/05/19 08:16:04;;;;;;;9.02;3.63;;;13.30;64.80;;;;;;6285916;22;20025;-87
2023/05/19 08:18:30;;;;;;;12.00;4.20;;;13.30;64.90;;;;;;6258483;22;20068;-86
2023/05/19 08:20:56;;;;;;;14.77;4.03;;;13.30;64.80;;;;;;6312482;22;20011;-87
2023/05/19 08:23:22;;;;;;;14.35;4.15;;;13.30;64.90;;;;;;6259480;22;20338;-87
2023/05/19 08:25:48;;;;;;;9.43;4.10;;;13.30;65.20;;;;;;6286310;22;20018;-86
2023/05/19 08:28:13;;;;;;;12.45;3.63;;;13.30;65.10;;;;;;6308992;22;20021;-87
2023/05/19 08:30:39;;;;;;;7.35;3.15;;;13.40;64.80;;;;;;6312070;22;20011;-87
2023/05/19 08:33:05;;;;;;;8.05;3.20;;;13.40;64.60;;;;;;6310175;22;20022;-88
2023/05/19 08:35:31;;;;;;;10.55;3.75;;;13.50;64.20;;;;;;6311519;22;20341;-87
2023/05/19 08:37:57;;;;;;;12.15;3.75;;;13.50;64.30;;;;;;6310218;22;20014;-85
2023/05/19 08:40:23;;;;;;;8.70;3.30;;;13.60;64.00;;;;;;6311273;22;20050;-87
2023/05/19 08:42:49;;;;;;;10.73;3.80;;;13.60;63.60;;;;;;6284695;22;20098;-86
2023/05/19 08:45:15;;;;;;;11.57;3.88;;;13.60;63.70;;;;;;6311358;22;20396;-87
2023/05/19 08:47:44;;;;;;;10.77;3.75;;;13.70;64.00;;;;;;6283380;22;20011;-86
2023/05/19 08:50:11;;;;;;;11.63;4.18;;;13.90;63.90;;;;;;6285155;22;20015;-86
2023/05/19 08:52:54;;;;;;;11.10;4.10;;;13.90;63.90;;;;;;6309828;22;20433;-87
2023/05/19 08:55:42;;;;;;;11.57;4.28;;;14.00;63.20;;;;;;6286486;22;20039;-88
2023/05/19 08:58:10;;;;;;;10.75;4.20;;;14.10;63.20;;;;;;6282874;22;20010;-87
2023/05/19 09:00:36;;;;;;;6.57;3.60;;;14.10;63.70;;;;;;6285875;22;20090;-87
2023/05/19 09:03:05;;;;;;;9.02;3.53;;;14.10;63.40;;;;;;6258716;22;20411;-88
2023/05/19 09:05:31;;;;;;;10.55;3.67;;;14.10;63.00;;;;;;6286308;22;20011;-86
2023/05/19 09:07:57;;;;;;;9.85;4.05;;;14.10;63.20;;;;;;6309052;22;20017;-86
2023/05/19 09:10:23;;;;;;;11.82;4.15;;;14.10;62.80;;;;;;6310933;22;20050;-87
2023/05/19 09:12:52;;;;;;;11.10;3.80;;;14.20;62.60;;;;;;6283986;22;20089;-87
2023/05/19 09:15:18;;;;;;;12.27;3.80;;;14.30;62.60;;;;;;6286007;22;20050;-87
2023/05/19 09:17:46;;;;;;;8.70;3.50;;;14.40;62.50;;;;;;6283207;22;20014;-87
2023/05/19 09:20:13;;;;;;;8.60;3.83;;;14.50;61.80;;;;;;6285321;22;20019;-87
2023/05/19 09:22:49;;;;;;;9.43;3.42;;;14.50;61.90;;;;;;6284401;22;20026;-86
2023/05/19 09:25:25;;;;;;;9.43;3.55;;;14.50;61.30;;;;;;6286354;22;20023;-88
2023/05/19 09:27:52;;;;;;;10.27;3.78;;;14.50;61.00;;;;;;6283736;22;20441;-87
2023/05/19 09:30:18;;;;;;;12.90;3.67;;;14.50;61.50;;;;;;6311162;22;20011;-87
2023/05/19 09:32:45;;;;;;;9.90;3.10;;;14.60;61.90;;;;;;6309960;22;20018;-88
2023/05/19 09:35:12;;;;;;;10.05;3.80;;;14.70;61.60;;;;;;6285773;22;20015;-87
2023/05/19 09:37:42;;;;;;;8.13;3.28;;;14.80;61.40;;;;;;6284475;22;20433;-87
2023/05/19 09:40:13;;;;;;;8.70;3.60;;;14.80;61.30;;;;;;6284767;22;20019;-87
2023/05/19 09:42:41;;;;;;;14.45;4.00;;;14.80;61.00;;;;;;6283891;22;20477;-87
2023/05/19 09:45:08;;;;;;;14.15;3.67;;;14.80;61.30;;;;;;6310980;22;20015;-86
2023/05/19 09:47:36;;;;;;;10.63;3.50;;;14.90;61.20;;;;;;6309252;22;20042;-87
2023/05/19 09:50:03;;;;;;;8.25;2.97;;;14.90;61.40;;;;;;6285661;22;20019;-88
2023/05/19 09:52:29;;;;;;;11.07;3.28;;;15.00;60.70;;;;;;6283895;22;20015;-87
2023/05/19 09:54:56;;;;;;;12.10;3.38;;;14.90;60.00;;;;;;6311801;22;20021;-86
2023/05/19 09:57:28;;;;;;;8.93;3.67;;;14.90;60.40;;;;;;6309021;22;20143;-87
2023/05/19 09:59:56;;;;;;;10.82;3.58;;;14.90;60.80;;;;;;6312185;22;20025;-87
2023/05/19 10:02:24;;;;;;;10.70;3.50;;;14.90;60.20;;;;;;6285389;22;21882;-88
2023/05/19 10:04:51;;;;;;;13.57;3.08;;;15.00;60.00;;;;;;6288156;22;20094;-86
2023/05/19 10:07:18;;;;;;;9.70;3.05;;;15.00;59.90;;;;;;6310594;22;20019;-87
2023/05/19 10:09:44;;;;;;;10.65;3.33;;;15.00;60.00;;;;;;6287010;22;20011;-87
2023/05/19 10:12:12;;;;;;;11.05;3.05;;;15.00;58.90;;;;;;6285744;22;20093;-86
2023/05/19 10:14:39;;;;;;;8.68;3.13;;;14.90;58.80;;;;;;6313630;22;20321;-87
2023/05/19 10:17:06;;;;;;;6.47;3.15;;;14.90;59.40;;;;;;6284920;22;20022;-87
2023/05/19 10:19:35;;;;;;;8.45;3.60;;;14.80;59.40;;;;;;6312633;22;20015;-85
2023/05/19 10:22:00;;;;;;;14.82;3.85;;;14.90;59.30;;;;;;6287476;22;20022;-87
2023/05/19 10:24:26;;;;;;;9.95;3.72;;;14.90;59.10;;;;;;6285903;22;20019;-87
2023/05/19 10:27:01;;;;;;;11.05;3.30;;;14.90;59.20;;;;;;6311890;22;20459;-87
2023/05/19 10:29:30;;;;;;;11.63;3.53;;;15.00;59.60;;;;;;6311671;22;20025;-88
2023/05/19 10:32:01;;;;;;;5.85;3.40;;;15.00;59.50;;;;;;6313211;22;20097;-87
2023/05/19 10:34:52;;;;;;;9.95;3.20;;;15.10;58.90;;;;;;6286256;22;20018;-87
2023/05/19 10:37:48;;;;;;;7.88;2.90;;;15.10;58.40;;;;;;6285769;22;20023;-87
2023/05/19 10:40:37;;;;;;;8.48;2.90;;;15.00;57.60;;;;;;6283882;22;20011;-86
2023/05/19 10:43:15;;;;;;;9.15;3.00;;;15.00;58.30;;;;;;6285619;22;20014;-87
2023/05/19 10:45:53;;;;;;;8.27;2.60;;;15.10;58.20;;;;;;6313440;22;20011;-87
2023/05/19 10:48:22;;;;;;;6.82;2.75;;;15.10;57.50;;;;;;6310630;22;20317;-87
2023/05/19 10:50:52;;;;;;;7.03;2.75;;;15.00;58.00;;;;;;6288087;22;20017;-86
2023/05/19 10:53:20;;;;;;;6.97;2.67;;;15.00;57.50;;;;;;6311473;22;20140;-86
2023/05/19 10:56:02;;;;;;;8.48;2.53;;;14.90;57.80;;;;;;6312525;22;20463;-86
2023/05/19 10:58:48;;;;;;;6.13;2.78;;;15.00;58.90;;;;;;6257933;22;20019;-87
2023/05/19 11:01:18;;;;;;;9.45;3.38;;;15.20;58.90;;;;;;6256232;22;20042;-88
2023/05/19 11:03:56;;;;;;;9.45;3.22;;;15.20;58.40;;;;;;6254106;22;20023;-86
2023/05/19 11:06:35;;;;;;;9.32;2.65;;;15.30;58.50;;;;;;6255631;22;20019;-87
2023/05/19 11:09:04;;;;;;;9.95;3.10;;;15.40;57.60;;;;;;6279677;22;20091;-86
2023/05/19 11:11:48;;;;;;;7.63;2.95;;;15.40;58.50;;;;;;6280545;22;20077;-87
2023/05/19 11:14:19;;;;;;;7.32;2.85;;;15.40;57.40;;;;;;6254744;22;20019;-88
2023/05/19 11:16:47;;;;;;;6.18;2.60;;;15.40;57.80;;;;;;6280436;22;20042;-88
2023/05/19 11:19:26;;;;;;;8.52;3.33;;;15.40;57.80;;;;;;6254748;22;20076;-87
2023/05/19 11:21:56;;;;;;;9.00;3.30;;;15.40;57.00;;;;;;6281115;22;20016;-87
2023/05/19 11:24:49;;;;;;;10.75;3.42;;;15.40;58.20;;;;;;6280357;22;20332;-87
2023/05/19 11:27:30;;;;;;;13.07;3.70;;;15.40;56.60;;;;;;6278566;22;20022;-87
2023/05/19 11:30:22;;;;;;;12.45;3.88;;;15.40;58.00;;;;;;6255599;22;20512;-87
2023/05/19 11:32:48;;;;;;;9.95;3.30;;;15.40;57.80;;;;;;6274537;22;20086;-87
2023/05/19 11:35:17;;;;;;;6.60;2.80;;;15.40;57.70;;;;;;6256320;22;20050;-87
2023/05/19 11:37:46;;;;;;;10.85;4.25;;;15.50;57.40;;;;;;6254929;22;20018;-88
2023/05/19 11:40:14;;;;;;;10.27;4.15;;;15.40;57.90;;;;;;6255794;22;20011;-87
2023/05/19 11:42:40;;;;;;;8.90;3.88;;;15.50;58.30;;;;;;6254045;22;20019;-87
2023/05/19 11:45:06;;;;;;;8.75;3.55;;;15.60;58.40;;;;;;6280950;22;20060;-87
2023/05/19 11:47:32;;;;;;;9.27;3.78;;;15.60;58.20;;;;;;6253423;22;20334;-87
2023/05/19 11:49:58;;;;;;;10.15;4.13;;;15.60;58.30;;;;;;6255411;22;20157;-87
2023/05/19 11:52:26;;;;;;;11.45;3.40;;;15.60;58.10;;;;;;6228403;22;20015;-86
2023/05/19 11:54:52;;;;;;;11.20;3.90;;;15.60;57.80;;;;;;6255298;22;20093;-87
2023/05/19 11:57:18;;;;;;;8.65;3.78;;;15.60;57.80;;;;;;6253168;22;20030;-88
2023/05/19 11:59:46;;;;;;;12.82;3.50;;;15.60;58.00;;;;;;6273725;22;20026;-87
2023/05/19 12:02:17;;;;;;;10.02;3.60;;;15.70;57.90;;;;;;6310267;22;20022;-87
2023/05/19 12:04:43;;;;;;;8.52;3.28;;;15.70;57.70;;;;;;6312059;22;20010;-87
2023/05/19 12:07:16;;;;;;;8.75;3.50;;;15.70;58.40;;;;;;6284143;22;20013;-87
2023/05/19 12:09:42;;;;;;;9.30;3.38;;;15.80;58.30;;;;;;6285895;22;20021;-86
2023/05/19 12:12:08;;;;;;;7.38;2.90;;;15.90;58.40;;;;;;6309908;22;20015;-87
2023/05/19 12:14:34;;;;;;;10.70;3.50;;;16.00;58.00;;;;;;6311388;22;20015;-87
2023/05/19 12:17:11;;;;;;;7.93;2.53;;;16.00;57.90;;;;;;6285424;22;20015;-87
2023/05/19 12:19:37;;;;;;;9.30;3.20;;;16.00;57.70;;;;;;6310450;22;20085;-87
2023/05/19 12:22:04;;;;;;;9.63;3.13;;;16.00;57.50;;;;;;6284490;22;20119;-87
2023/05/19 12:24:30;;;;;;;7.75;3.20;;;15.90;57.30;;;;;;6285905;22;20011;-87
2023/05/19 12:27:12;;;;;;;5.60;2.63;;;15.90;56.80;;;;;;6258760;22;20529;-84
2023/05/19 12:29:39;;;;;;;10.82;2.75;;;15.90;56.50;;;;;;6310413;22;20053;-87
2023/05/19 12:32:07;;;;;;;7.72;2.65;;;16.10;56.90;;;;;;6311005;22;20015;-87
2023/05/19 12:34:38;;;;;;;9.15;2.72;;;16.20;56.40;;;;;;6286570;22;20026;-89
2023/05/19 12:37:06;;;;;;;7.85;3.30;;;16.30;56.50;;;;;;6309667;22;20011;-88
2023/05/19 12:39:32;;;;;;;7.70;2.65;;;16.40;56.50;;;;;;6260063;22;20015;-89
2023/05/19 12:42:09;;;;;;;7.55;2.92;;;16.40;56.30;;;;;;6285874;22;20458;-87
2023/05/19 12:44:51;;;;;;;7.78;3.15;;;16.40;56.50;;;;;;6285268;22;20139;-87
2023/05/19 12:47:18;;;;;;;;;;;16.40;57.30;;;;;;6283767;22;20015;-87
2023/05/19 12:50:08;;;;;;;8.82;2.38;;;16.50;56.30;;;;;;6285646;22;19964;-86